Time;durP1;ratioP1;P1;durP2;ratioP2;P2;SDS_P1;SDS_P2;PMS_P1;PMS_P2;Temp;Humidity;BMP_temperature;BMP_pressure;BME280_temperature;BME280_humidity;BME280_pressure;Samples;Min_cycle;Max_cycle;Signal;HPM_P1;HPM_P2
2022/02/20 00:01:40;;;;;;;1.75;0.70;;;17.40;51.30;;;;;;5051668;28;20179;-59
2022/02/20 00:04:06;;;;;;;2.97;1.10;;;17.40;51.30;;;;;;5052073;28;20638;-59
2022/02/20 00:06:31;;;;;;;2.97;0.65;;;17.40;51.40;;;;;;5052109;28;20228;-59
2022/02/20 00:08:57;;;;;;;1.98;1.00;;;17.40;51.50;;;;;;5051411;28;20171;-62
2022/02/20 00:11:22;;;;;;;1.52;0.88;;;17.40;51.50;;;;;;5052148;28;20203;-62
2022/02/20 00:13:48;;;;;;;2.33;1.27;;;17.40;51.40;;;;;;5051572;28;20172;-62
2022/02/20 00:16:13;;;;;;;1.85;1.00;;;17.30;51.30;;;;;;5052030;28;20171;-62
2022/02/20 00:18:39;;;;;;;1.20;0.98;;;17.30;51.50;;;;;;5052074;28;20649;-61
2022/02/20 00:21:04;;;;;;;1.70;1.05;;;17.30;51.50;;;;;;5050989;28;21025;-62
2022/02/20 00:23:30;;;;;;;1.70;1.08;;;17.30;51.40;;;;;;5054029;28;20175;-61
2022/02/20 00:25:55;;;;;;;2.25;0.90;;;17.30;51.50;;;;;;5055565;28;20767;-61
2022/02/20 00:28:21;;;;;;;2.75;0.90;;;17.30;51.60;;;;;;5055085;28;20167;-61
2022/02/20 00:30:47;;;;;;;2.28;1.10;;;17.30;51.60;;;;;;5055900;28;20670;-60
2022/02/20 00:33:12;;;;;;;2.53;0.90;;;17.30;51.60;;;;;;5055474;28;20666;-60
2022/02/20 00:35:38;;;;;;;1.17;0.60;;;17.20;51.60;;;;;;5055039;28;20186;-60
2022/02/20 00:38:04;;;;;;;2.42;1.13;;;17.20;52.40;;;;;;5055133;28;20175;-61
2022/02/20 00:40:30;;;;;;;1.40;0.88;;;17.20;51.80;;;;;;5055607;28;20179;-60
2022/02/20 00:42:56;;;;;;;1.20;0.70;;;17.20;51.80;;;;;;5054528;28;20270;-60
2022/02/20 00:45:21;;;;;;;1.88;0.88;;;17.20;51.80;;;;;;5055470;28;20695;-60
2022/02/20 00:47:47;;;;;;;1.15;0.80;;;17.20;51.80;;;;;;5055383;28;20184;-60
2022/02/20 00:50:12;;;;;;;1.92;0.93;;;17.20;51.80;;;;;;5054217;28;20182;-61
2022/02/20 00:52:38;;;;;;;2.33;1.02;;;17.10;51.90;;;;;;5055773;28;20492;-62
2022/02/20 00:55:04;;;;;;;1.25;0.80;;;17.20;51.90;;;;;;5054982;28;20261;-62
2022/02/20 00:57:29;;;;;;;2.35;0.77;;;17.10;51.90;;;;;;5054376;28;20235;-60
2022/02/20 00:59:55;;;;;;;1.65;0.63;;;17.10;51.90;;;;;;5055064;28;20660;-60
2022/02/20 01:02:20;;;;;;;2.67;0.93;;;17.10;51.90;;;;;;5055211;28;20185;-59
2022/02/20 01:04:46;;;;;;;1.60;0.90;;;17.10;51.90;;;;;;5054131;28;20167;-59
2022/02/20 01:07:11;;;;;;;1.13;0.70;;;17.10;51.80;;;;;;5054551;28;20634;-60
2022/02/20 01:09:37;;;;;;;2.92;1.17;;;17.10;51.90;;;;;;5055043;28;20167;-61
2022/02/20 01:12:03;;;;;;;3.00;0.93;;;17.10;51.90;;;;;;5053840;28;20264;-62
2022/02/20 01:14:28;;;;;;;2.90;0.90;;;17.10;51.90;;;;;;5054973;28;20520;-62
2022/02/20 01:16:54;;;;;;;1.20;0.60;;;17.00;51.90;;;;;;5054615;28;20181;-63
2022/02/20 01:19:19;;;;;;;1.63;0.88;;;17.00;51.90;;;;;;5054282;28;20178;-61
2022/02/20 01:21:45;;;;;;;2.08;0.95;;;17.00;51.80;;;;;;5054842;28;20183;-61
2022/02/20 01:24:10;;;;;;;1.65;0.93;;;17.00;51.90;;;;;;5053634;28;20171;-60
2022/02/20 01:26:36;;;;;;;1.23;0.82;;;17.00;51.90;;;;;;5054604;28;20512;-59
2022/02/20 01:29:02;;;;;;;0.75;0.70;;;17.00;51.90;;;;;;5054298;28;20258;-60
2022/02/20 01:31:28;;;;;;;0.90;0.50;;;17.00;51.90;;;;;;5053627;28;20727;-59
2022/02/20 01:33:53;;;;;;;1.30;0.80;;;17.00;51.90;;;;;;5053977;28;20195;-59
2022/02/20 01:36:19;;;;;;;2.10;0.70;;;16.90;51.90;;;;;;5053733;28;20201;-60
2022/02/20 01:38:44;;;;;;;1.98;0.90;;;16.90;52.00;;;;;;5053555;28;20534;-60
2022/02/20 01:41:10;;;;;;;1.58;0.90;;;16.90;51.90;;;;;;5054094;28;20175;-60
2022/02/20 01:43:35;;;;;;;0.88;0.80;;;17.00;52.00;;;;;;5054401;28;20207;-60
2022/02/20 01:46:01;;;;;;;1.40;0.75;;;17.00;51.90;;;;;;5053067;28;20236;-60
2022/02/20 01:48:29;;;;;;;1.40;0.77;;;16.90;51.90;;;;;;5054088;28;20194;-60
2022/02/20 01:50:55;;;;;;;1.23;0.80;;;16.90;51.90;;;;;;5053966;28;20214;-60
2022/02/20 01:53:20;;;;;;;0.68;0.60;;;16.90;51.90;;;;;;5053261;28;20544;-61
2022/02/20 01:55:46;;;;;;;1.77;0.70;;;16.90;52.00;;;;;;5054211;28;20190;-61
2022/02/20 01:58:11;;;;;;;1.27;0.60;;;16.90;52.00;;;;;;5053552;28;20214;-60
2022/02/20 02:00:37;;;;;;;1.70;0.80;;;16.90;51.80;;;;;;5053206;28;20179;-59
2022/02/20 02:03:02;;;;;;;1.52;0.60;;;16.90;51.90;;;;;;5053547;28;20201;-59
2022/02/20 02:05:28;;;;;;;1.67;0.80;;;16.90;52.00;;;;;;5035909;28;20190;-61
2022/02/20 02:07:56;;;;;;;0.80;0.68;;;16.80;52.00;;;;;;5052743;28;20274;-61
2022/02/20 02:10:22;;;;;;;0.82;0.60;;;16.90;52.00;;;;;;5035702;28;20178;-63
2022/02/20 02:12:47;;;;;;;2.72;0.70;;;16.80;52.00;;;;;;5053810;28;20172;-63
2022/02/20 02:15:13;;;;;;;1.23;0.70;;;16.80;52.00;;;;;;5052707;28;20170;-62
2022/02/20 02:17:38;;;;;;;1.50;0.85;;;16.80;51.90;;;;;;5053516;28;20531;-63
2022/02/20 02:20:08;;;;;;;2.50;0.77;;;16.80;51.90;;;;;;5053424;28;20179;-63
2022/02/20 02:22:33;;;;;;;0.68;0.57;;;16.80;51.70;;;;;;5053027;28;20171;-62
2022/02/20 02:24:59;;;;;;;1.13;0.75;;;16.80;51.70;;;;;;5053222;28;20516;-62
2022/02/20 02:27:24;;;;;;;1.35;0.88;;;16.80;51.70;;;;;;5052951;28;20197;-61
2022/02/20 02:29:50;;;;;;;1.42;0.80;;;16.80;51.60;;;;;;5053593;28;20233;-60
2022/02/20 02:32:15;;;;;;;1.85;0.82;;;16.80;51.70;;;;;;5052905;28;20210;-61
2022/02/20 02:34:42;;;;;;;1.60;0.70;;;16.80;51.80;;;;;;5052867;28;20206;-60
2022/02/20 02:37:08;;;;;;;2.05;1.15;;;16.70;51.60;;;;;;5053166;28;20175;-61
2022/02/20 02:39:33;;;;;;;2.17;1.05;;;16.80;51.60;;;;;;5053219;28;20262;-62
2022/02/20 02:41:59;;;;;;;0.70;0.57;;;16.70;51.50;;;;;;5052326;28;20229;-61
2022/02/20 02:44:24;;;;;;;1.27;0.80;;;16.70;51.50;;;;;;5053180;28;20175;-61
2022/02/20 02:46:50;;;;;;;1.58;0.73;;;16.70;51.50;;;;;;5052191;28;20174;-61
2022/02/20 02:49:15;;;;;;;0.98;0.60;;;16.70;51.50;;;;;;5052248;28;20171;-62
2022/02/20 02:51:41;;;;;;;1.65;0.73;;;16.70;51.50;;;;;;5053154;28;20306;-62
2022/02/20 02:54:10;;;;;;;1.42;0.57;;;16.70;51.50;;;;;;5052721;28;20259;-62
2022/02/20 02:56:36;;;;;;;2.17;0.80;;;16.70;51.50;;;;;;5052087;28;20258;-62
2022/02/20 02:59:02;;;;;;;1.00;0.50;;;16.70;51.50;;;;;;5052745;28;20225;-61
2022/02/20 03:01:27;;;;;;;1.35;0.65;;;16.70;51.50;;;;;;5052836;28;20179;-61
2022/02/20 03:03:53;;;;;;;1.95;0.70;;;16.70;51.50;;;;;;5052088;28;20178;-61
2022/02/20 03:06:18;;;;;;;1.45;0.80;;;16.70;51.60;;;;;;5052811;28;20175;-60
2022/02/20 03:08:43;;;;;;;0.75;0.50;;;16.60;51.60;;;;;;5052906;28;20283;-62
2022/02/20 03:11:09;;;;;;;1.20;0.70;;;16.60;51.60;;;;;;5051721;28;20348;-63
2022/02/20 03:13:36;;;;;;;1.52;0.73;;;16.60;51.40;;;;;;5052719;28;20221;-62
2022/02/20 03:16:01;;;;;;;2.08;0.90;;;16.70;51.60;;;;;;5052336;28;20542;-63
2022/02/20 03:18:29;;;;;;;0.45;0.30;;;16.60;51.50;;;;;;5052249;28;20684;-63
2022/02/20 03:20:56;;;;;;;2.35;1.00;;;16.60;51.50;;;;;;5052431;28;20183;-63
2022/02/20 03:23:21;;;;;;;0.70;0.60;;;16.60;51.40;;;;;;5052681;28;20228;-62
2022/02/20 03:25:47;;;;;;;1.17;0.63;;;16.60;51.50;;;;;;5051972;28;20578;-62
2022/02/20 03:28:12;;;;;;;0.47;0.40;;;16.60;51.40;;;;;;5052310;28;20174;-61
2022/02/20 03:30:38;;;;;;;0.90;0.52;;;16.60;51.40;;;;;;5052246;28;20218;-61
2022/02/20 03:33:03;;;;;;;1.58;0.50;;;16.60;51.50;;;;;;5052128;28;20175;-61
2022/02/20 03:35:29;;;;;;;1.15;0.50;;;16.50;51.30;;;;;;5052443;28;20210;-61
2022/02/20 03:37:54;;;;;;;1.63;0.77;;;16.60;51.40;;;;;;5051554;28;20718;-62
2022/02/20 03:40:20;;;;;;;2.67;0.60;;;16.50;51.40;;;;;;5052756;28;20174;-62
2022/02/20 03:42:45;;;;;;;0.95;0.40;;;16.50;51.40;;;;;;5052388;28;20179;-62
2022/02/20 03:45:11;;;;;;;0.82;0.40;;;16.50;51.30;;;;;;5051468;28;20193;-62
2022/02/20 03:47:37;;;;;;;1.77;0.80;;;16.50;51.40;;;;;;5052371;28;20262;-61
2022/02/20 03:50:03;;;;;;;1.40;0.60;;;16.50;51.30;;;;;;5052107;28;20167;-62
2022/02/20 03:52:30;;;;;;;0.65;0.40;;;16.50;51.30;;;;;;5051515;28;20693;-63
2022/02/20 03:54:56;;;;;;;0.70;0.65;;;16.50;51.30;;;;;;5052162;28;20544;-62
2022/02/20 03:57:21;;;;;;;1.08;0.65;;;16.50;51.30;;;;;;5052282;28;20695;-62
2022/02/20 03:59:47;;;;;;;1.15;0.55;;;16.50;51.30;;;;;;5055425;28;20179;-61
2022/02/20 04:02:12;;;;;;;2.80;0.70;;;16.50;51.30;;;;;;5056106;28;20186;-61
2022/02/20 04:04:38;;;;;;;1.00;0.55;;;16.50;51.30;;;;;;5056273;28;20167;-61
2022/02/20 04:07:03;;;;;;;1.23;0.70;;;16.50;51.30;;;;;;5055029;28;20178;-61
2022/02/20 04:09:29;;;;;;;1.92;0.70;;;16.40;51.20;;;;;;5056073;28;20630;-62
2022/02/20 04:11:54;;;;;;;1.17;0.60;;;16.40;51.20;;;;;;5055774;28;20673;-63
2022/02/20 04:14:20;;;;;;;1.30;0.50;;;16.40;51.20;;;;;;5055277;28;20182;-63
2022/02/20 04:16:45;;;;;;;1.85;0.60;;;16.40;51.20;;;;;;5056157;28;20178;-62
2022/02/20 04:19:11;;;;;;;1.20;0.50;;;16.40;51.20;;;;;;5055464;28;20539;-63
2022/02/20 04:21:36;;;;;;;0.40;0.40;;;16.40;51.20;;;;;;5055197;28;20653;-62
2022/02/20 04:24:02;;;;;;;0.88;0.55;;;16.40;51.20;;;;;;5055538;28;20171;-62
2022/02/20 04:26:27;;;;;;;0.55;0.45;;;16.40;51.20;;;;;;5055663;28;20183;-61
2022/02/20 04:28:53;;;;;;;0.88;0.60;;;16.40;51.20;;;;;;5054633;28;20657;-61
2022/02/20 04:31:18;;;;;;;0.50;0.50;;;16.40;51.10;;;;;;5055452;28;20677;-61
2022/02/20 04:33:45;;;;;;;1.95;0.73;;;16.40;51.20;;;;;;5055535;28;20190;-61
2022/02/20 04:36:11;;;;;;;1.00;0.47;;;16.40;51.10;;;;;;5054831;28;20175;-61
2022/02/20 04:38:36;;;;;;;0.50;0.50;;;16.30;51.20;;;;;;5055534;28;20171;-61
2022/02/20 04:41:02;;;;;;;1.35;0.68;;;16.30;51.20;;;;;;5054630;28;20178;-62
2022/02/20 04:43:27;;;;;;;0.65;0.43;;;16.30;51.10;;;;;;5055529;28;20232;-62
2022/02/20 04:45:53;;;;;;;1.15;0.60;;;16.30;51.10;;;;;;5055024;28;20265;-61
2022/02/20 04:48:18;;;;;;;1.60;0.60;;;16.30;51.20;;;;;;5054806;28;20171;-62
2022/02/20 04:50:44;;;;;;;0.82;0.52;;;16.30;51.10;;;;;;5055270;28;20226;-62
2022/02/20 04:53:10;;;;;;;0.98;0.40;;;16.30;51.10;;;;;;5054966;28;20182;-62
2022/02/20 04:55:35;;;;;;;0.85;0.60;;;16.30;51.10;;;;;;5054637;28;20229;-63
2022/02/20 04:58:01;;;;;;;2.17;0.60;;;16.30;51.10;;;;;;5054586;28;20227;-61
2022/02/20 05:00:26;;;;;;;1.10;0.52;;;16.30;51.10;;;;;;5055355;28;20167;-61
2022/02/20 05:02:52;;;;;;;1.13;0.50;;;16.30;51.20;;;;;;5054452;28;20179;-60
2022/02/20 05:05:17;;;;;;;0.85;0.60;;;16.30;51.10;;;;;;5054866;28;20638;-61
2022/02/20 05:07:42;;;;;;;1.52;0.60;;;16.30;51.10;;;;;;5055108;28;20206;-62
2022/02/20 05:10:08;;;;;;;1.90;0.93;;;16.30;51.20;;;;;;5052965;28;20179;-62
2022/02/20 05:12:34;;;;;;;1.13;0.60;;;16.20;51.10;;;;;;5054816;28;20249;-63
2022/02/20 05:14:59;;;;;;;1.25;0.60;;;16.20;51.10;;;;;;5054734;28;20653;-64
2022/02/20 05:17:25;;;;;;;2.15;0.65;;;16.20;51.10;;;;;;5054236;28;20281;-62
2022/02/20 05:19:50;;;;;;;1.92;0.80;;;16.20;51.10;;;;;;5054668;28;20320;-62
2022/02/20 05:22:16;;;;;;;0.88;0.60;;;16.20;51.10;;;;;;5054679;28;20171;-62
2022/02/20 05:24:44;;;;;;;0.60;0.40;;;16.20;51.10;;;;;;5054035;28;20187;-62
2022/02/20 05:27:09;;;;;;;1.13;0.68;;;16.20;51.10;;;;;;5054506;28;20333;-61
2022/02/20 05:29:35;;;;;;;1.40;0.70;;;16.20;51.10;;;;;;5054742;28;20634;-60
2022/02/20 05:32:00;;;;;;;1.13;0.60;;;16.20;51.10;;;;;;5053704;28;20214;-61
2022/02/20 05:34:25;;;;;;;0.82;0.50;;;16.20;51.10;;;;;;5054505;28;20167;-60
2022/02/20 05:36:51;;;;;;;0.60;0.50;;;16.20;51.10;;;;;;5054466;28;20654;-61
2022/02/20 05:39:17;;;;;;;1.08;0.80;;;16.20;51.20;;;;;;5053457;28;20174;-61
2022/02/20 05:41:42;;;;;;;1.50;0.70;;;16.20;51.20;;;;;;5054434;28;20171;-61
2022/02/20 05:44:07;;;;;;;1.17;0.80;;;16.10;51.80;;;;;;5054007;28;20175;-61
2022/02/20 05:46:33;;;;;;;1.15;0.82;;;16.10;51.20;;;;;;5053780;28;20182;-61
2022/02/20 05:49:00;;;;;;;2.88;0.77;;;16.10;51.20;;;;;;5054109;28;20171;-61
2022/02/20 05:51:25;;;;;;;0.82;0.80;;;16.10;51.20;;;;;;5053579;28;20238;-62
2022/02/20 05:53:51;;;;;;;1.25;1.13;;;16.10;51.20;;;;;;5054186;28;20249;-62
2022/02/20 05:56:17;;;;;;;1.20;0.70;;;16.10;51.30;;;;;;5053650;28;20242;-62
2022/02/20 05:58:43;;;;;;;1.20;0.98;;;16.10;51.20;;;;;;5053360;28;20190;-61
2022/02/20 06:01:08;;;;;;;1.25;0.90;;;16.10;51.30;;;;;;5053858;28;20199;-61
2022/02/20 06:03:34;;;;;;;1.50;0.95;;;16.10;51.30;;;;;;5054011;28;20171;-60
2022/02/20 06:05:59;;;;;;;1.25;0.80;;;16.10;51.30;;;;;;5052901;28;20206;-60
2022/02/20 06:08:25;;;;;;;0.60;0.60;;;16.10;51.30;;;;;;5053728;28;20187;-61
2022/02/20 06:10:50;;;;;;;1.20;0.95;;;16.10;51.30;;;;;;5053589;28;20214;-61
2022/02/20 06:13:17;;;;;;;2.60;0.98;;;16.10;51.30;;;;;;5052805;28;20202;-63
2022/02/20 06:15:43;;;;;;;1.98;0.82;;;16.10;51.30;;;;;;5053799;28;20179;-62
2022/02/20 06:18:08;;;;;;;1.23;0.88;;;16.00;51.20;;;;;;5053514;28;20182;-63
2022/02/20 06:20:34;;;;;;;1.58;0.80;;;16.10;51.30;;;;;;5052698;28;20171;-62
2022/02/20 06:23:00;;;;;;;1.50;0.95;;;16.00;51.30;;;;;;5053327;28;20661;-61
2022/02/20 06:25:26;;;;;;;1.08;0.98;;;16.00;51.30;;;;;;5053416;28;20552;-61
2022/02/20 06:27:52;;;;;;;1.55;1.05;;;16.00;51.30;;;;;;5052762;28;20175;-61
2022/02/20 06:30:18;;;;;;;1.58;1.10;;;16.00;51.30;;;;;;5053503;28;20171;-59
2022/02/20 06:32:44;;;;;;;2.03;0.80;;;16.00;51.40;;;;;;5053336;28;20183;-61
2022/02/20 06:35:09;;;;;;;2.03;0.90;;;16.00;51.40;;;;;;5052356;28;20199;-61
2022/02/20 06:37:35;;;;;;;1.05;0.80;;;16.00;51.50;;;;;;5053457;28;20201;-61
2022/02/20 06:40:00;;;;;;;1.05;0.80;;;16.00;51.40;;;;;;5052953;28;20175;-61
2022/02/20 06:42:26;;;;;;;1.27;0.90;;;16.00;51.40;;;;;;5052425;28;20182;-61
2022/02/20 06:44:51;;;;;;;1.27;1.00;;;16.00;51.50;;;;;;5053360;28;20171;-61
2022/02/20 06:47:17;;;;;;;2.38;0.98;;;16.00;51.40;;;;;;5052783;28;20175;-61
2022/02/20 06:49:42;;;;;;;3.17;1.05;;;16.00;51.50;;;;;;5052459;28;20673;-61
2022/02/20 06:52:08;;;;;;;1.13;0.85;;;16.00;51.50;;;;;;5052681;28;20732;-62
2022/02/20 06:54:33;;;;;;;1.23;0.80;;;16.00;51.50;;;;;;5052923;28;20630;-62
2022/02/20 06:56:59;;;;;;;1.30;0.90;;;16.00;51.50;;;;;;5051783;28;20369;-62
2022/02/20 06:59:24;;;;;;;1.70;0.90;;;16.00;51.60;;;;;;5053029;28;20308;-61
2022/02/20 07:01:50;;;;;;;2.47;0.90;;;15.90;51.50;;;;;;5052402;28;20171;-60
2022/02/20 07:04:16;;;;;;;1.52;0.82;;;15.90;51.50;;;;;;5052794;28;20178;-60
2022/02/20 07:06:43;;;;;;;2.90;1.33;;;15.90;51.60;;;;;;5052885;28;20213;-61
2022/02/20 07:09:09;;;;;;;1.35;0.82;;;16.00;51.60;;;;;;5052008;28;20182;-62
2022/02/20 07:11:38;;;;;;;1.35;0.77;;;16.00;51.60;;;;;;5052812;28;20217;-61
2022/02/20 07:14:04;;;;;;;1.80;0.80;;;16.00;51.60;;;;;;5052579;28;20175;-63
2022/02/20 07:16:29;;;;;;;1.75;0.77;;;16.10;51.70;;;;;;5051940;28;20514;-63
2022/02/20 07:18:55;;;;;;;1.42;0.90;;;16.20;51.70;;;;;;5052362;28;20175;-62
2022/02/20 07:21:21;;;;;;;1.83;0.90;;;16.20;51.70;;;;;;5052643;28;20672;-61
2022/02/20 07:23:47;;;;;;;2.97;0.82;;;16.20;51.80;;;;;;5051959;28;20175;-61
2022/02/20 07:26:12;;;;;;;1.33;1.00;;;16.40;51.90;;;;;;5052481;28;20181;-61
2022/02/20 07:28:38;;;;;;;1.85;0.80;;;16.40;51.70;;;;;;5052648;28;20588;-61
2022/02/20 07:31:03;;;;;;;0.82;0.70;;;16.50;51.60;;;;;;5051690;28;20257;-61
2022/02/20 07:33:29;;;;;;;1.02;0.70;;;16.60;51.50;;;;;;5054621;28;20175;-61
2022/02/20 07:35:54;;;;;;;1.25;0.63;;;16.70;51.40;;;;;;5056438;28;20217;-61
2022/02/20 07:38:20;;;;;;;1.08;0.80;;;16.70;51.40;;;;;;5055988;28;20658;-61
2022/02/20 07:40:45;;;;;;;1.80;1.10;;;16.70;51.30;;;;;;5056907;28;20182;-62
2022/02/20 07:43:11;;;;;;;1.10;0.80;;;16.90;51.30;;;;;;5056509;28;20174;-61
2022/02/20 07:45:36;;;;;;;1.98;1.05;;;17.00;51.20;;;;;;5055804;28;20175;-61
2022/02/20 07:48:03;;;;;;;1.95;0.82;;;17.20;51.00;;;;;;5056230;28;20535;-61
2022/02/20 07:50:37;;;;;;;1.75;0.82;;;17.40;50.70;;;;;;5056279;28;20207;-67
2022/02/20 07:53:03;;;;;;;1.73;0.82;;;17.60;50.50;;;;;;5055434;28;20638;-68
2022/02/20 07:55:29;;;;;;;2.00;1.10;;;17.70;50.30;;;;;;5056406;28;20187;-67
2022/02/20 07:57:55;;;;;;;1.25;0.80;;;17.80;50.30;;;;;;5055825;28;20219;-68
2022/02/20 08:00:21;;;;;;;0.98;0.77;;;18.00;50.20;;;;;;5055750;28;20182;-68
2022/02/20 08:02:47;;;;;;;2.35;1.10;;;18.00;50.60;;;;;;5061615;28;20195;-66
2022/02/20 08:05:13;;;;;;;2.00;0.80;;;18.10;50.30;;;;;;5062980;28;20190;-65
2022/02/20 08:07:38;;;;;;;2.55;0.98;;;18.20;50.20;;;;;;5066082;28;20645;-66
2022/02/20 08:10:04;;;;;;;2.17;1.10;;;18.20;50.20;;;;;;5068959;28;20182;-64
2022/02/20 08:12:30;;;;;;;1.77;0.90;;;18.20;50.20;;;;;;5071319;28;20264;-64
2022/02/20 08:14:55;;;;;;;3.15;1.20;;;18.30;50.30;;;;;;5064399;28;20232;-64
2022/02/20 08:17:24;;;;;;;1.77;0.80;;;18.30;50.30;;;;;;5065427;28;20170;-63
2022/02/20 08:19:49;;;;;;;1.77;1.33;;;18.30;50.40;;;;;;5061058;28;20236;-62
2022/02/20 08:22:15;;;;;;;1.70;0.82;;;18.30;50.50;;;;;;5055282;28;20183;-65
2022/02/20 08:24:42;;;;;;;1.95;0.70;;;18.20;50.60;;;;;;5056220;28;20248;-65
2022/02/20 08:27:08;;;;;;;3.00;1.05;;;18.20;50.50;;;;;;5040267;28;20597;-64
2022/02/20 08:29:34;;;;;;;1.95;0.90;;;18.20;51.20;;;;;;5075612;28;20178;-65
2022/02/20 08:32:02;;;;;;;1.70;0.90;;;18.20;50.60;;;;;;5066691;28;20570;-65
2022/02/20 08:34:28;;;;;;;2.80;0.80;;;18.20;50.70;;;;;;5059524;28;20299;-66
2022/02/20 08:36:53;;;;;;;2.65;1.05;;;18.20;50.60;;;;;;5074468;28;20181;-66
2022/02/20 08:39:19;;;;;;;2.85;0.90;;;18.20;50.60;;;;;;5075167;28;20167;-66
2022/02/20 08:41:44;;;;;;;1.27;0.75;;;18.20;50.70;;;;;;5055827;28;20182;-65
2022/02/20 08:44:10;;;;;;;2.40;1.00;;;18.20;50.70;;;;;;5053996;28;20171;-64
2022/02/20 08:46:35;;;;;;;1.95;0.80;;;18.30;50.70;;;;;;5054935;28;20183;-65
2022/02/20 08:49:01;;;;;;;1.77;0.90;;;18.30;50.70;;;;;;5053836;28;20187;-65
2022/02/20 08:51:26;;;;;;;2.33;0.80;;;18.30;50.70;;;;;;5054909;28;20677;-64
2022/02/20 08:53:52;;;;;;;1.88;0.80;;;18.30;50.70;;;;;;5055149;28;20695;-65
2022/02/20 08:56:19;;;;;;;1.65;0.80;;;18.40;50.80;;;;;;5054054;28;20231;-63
2022/02/20 08:58:44;;;;;;;1.27;0.80;;;18.30;50.80;;;;;;5072776;28;20178;-64
2022/02/20 09:01:10;;;;;;;1.60;0.88;;;18.30;50.70;;;;;;5074624;28;20178;-64
2022/02/20 09:03:35;;;;;;;2.78;0.95;;;18.30;50.70;;;;;;5074070;28;20259;-65
2022/02/20 09:06:01;;;;;;;1.55;1.02;;;18.30;50.70;;;;;;5074536;28;20170;-64
2022/02/20 09:08:27;;;;;;;1.00;0.63;;;18.30;50.70;;;;;;5074241;28;20590;-64
2022/02/20 09:10:52;;;;;;;1.05;0.70;;;18.30;50.80;;;;;;5074489;28;20214;-64
2022/02/20 09:13:18;;;;;;;1.70;0.88;;;18.30;50.70;;;;;;5074955;28;20273;-63
2022/02/20 09:15:43;;;;;;;0.90;0.70;;;18.40;50.80;;;;;;5073918;28;20198;-64
2022/02/20 09:18:09;;;;;;;2.15;0.82;;;18.40;50.80;;;;;;5073753;28;20681;-63
2022/02/20 09:20:34;;;;;;;1.33;0.85;;;18.30;50.80;;;;;;5074448;28;20228;-63
2022/02/20 09:23:00;;;;;;;1.15;0.70;;;18.30;50.90;;;;;;5073690;28;20175;-64
2022/02/20 09:25:25;;;;;;;1.35;0.70;;;18.30;50.90;;;;;;5074339;28;20178;-64
2022/02/20 09:27:51;;;;;;;1.35;1.13;;;18.30;50.90;;;;;;5074356;28;20625;-64
2022/02/20 09:30:17;;;;;;;2.60;0.82;;;18.30;50.90;;;;;;5073312;28;20193;-66
2022/02/20 09:32:42;;;;;;;2.03;1.08;;;18.40;51.10;;;;;;5057825;28;20211;-66
2022/02/20 09:35:08;;;;;;;2.30;0.90;;;18.40;51.10;;;;;;5059329;28;20171;-65
2022/02/20 09:37:33;;;;;;;2.25;0.98;;;18.40;51.20;;;;;;5063322;28;20190;-66
2022/02/20 09:39:59;;;;;;;2.42;1.00;;;18.40;51.20;;;;;;5062189;28;20625;-66
2022/02/20 09:42:24;;;;;;;4.68;1.10;;;18.40;51.20;;;;;;5066283;28;20664;-64
2022/02/20 09:44:50;;;;;;;1.55;0.85;;;18.50;51.30;;;;;;5055458;28;20372;-63
2022/02/20 09:47:15;;;;;;;1.92;1.20;;;18.50;51.30;;;;;;5073872;28;20185;-63
2022/02/20 09:49:42;;;;;;;2.30;0.80;;;18.50;51.30;;;;;;5073728;28;20308;-64
2022/02/20 09:52:08;;;;;;;2.22;1.00;;;18.50;52.10;;;;;;5038824;28;20218;-63
2022/02/20 09:54:34;;;;;;;2.25;1.20;;;18.50;51.40;;;;;;5073672;28;20177;-64
2022/02/20 09:56:59;;;;;;;1.25;0.90;;;18.50;51.50;;;;;;5072882;28;20229;-63
2022/02/20 09:59:27;;;;;;;2.50;1.10;;;18.40;51.50;;;;;;5073156;28;20535;-67
2022/02/20 10:02:04;;;;;;;1.77;1.05;;;18.30;51.50;;;;;;5073440;28;20171;-64
2022/02/20 10:04:47;;;;;;;1.63;0.90;;;18.30;51.70;;;;;;5073531;28;20261;-65
2022/02/20 10:07:27;;;;;;;3.17;1.10;;;18.20;51.90;;;;;;5073432;28;20188;-65
2022/02/20 10:09:53;;;;;;;2.28;1.27;;;18.20;52.10;;;;;;5073272;28;20170;-65
2022/02/20 10:12:23;;;;;;;1.67;1.08;;;18.10;52.10;;;;;;5072927;28;20566;-66
2022/02/20 10:14:49;;;;;;;3.08;1.00;;;18.20;52.30;;;;;;5073314;28;20629;-67
2022/02/20 10:17:16;;;;;;;4.13;1.63;;;18.10;52.20;;;;;;5073230;28;20179;-67
2022/02/20 10:19:58;;;;;;;2.97;1.25;;;18.10;52.10;;;;;;5072758;28;20547;-66
2022/02/20 10:22:33;;;;;;;3.78;1.20;;;18.10;52.30;;;;;;5073305;28;20205;-66
2022/02/20 10:25:06;;;;;;;1.95;0.95;;;18.10;52.30;;;;;;5072896;28;20177;-67
2022/02/20 10:27:31;;;;;;;1.55;1.10;;;18.10;52.20;;;;;;5072408;28;20186;-66
2022/02/20 10:30:12;;;;;;;2.47;1.48;;;18.10;52.30;;;;;;5073043;28;20186;-65
2022/02/20 10:32:38;;;;;;;4.30;1.52;;;18.00;52.50;;;;;;5056339;28;20722;-65
2022/02/20 10:35:11;;;;;;;3.22;1.23;;;18.00;52.60;;;;;;5052321;28;20198;-65
2022/02/20 10:37:36;;;;;;;3.38;1.25;;;18.00;52.60;;;;;;5052929;28;20202;-65
2022/02/20 10:40:21;;;;;;;4.93;1.80;;;18.00;52.60;;;;;;5052115;28;20174;-64
2022/02/20 10:42:46;;;;;;;4.78;1.83;;;18.00;52.60;;;;;;5037816;28;20198;-65
2022/02/20 10:45:22;;;;;;;4.47;1.92;;;17.90;52.60;;;;;;5052718;28;20202;-64
2022/02/20 10:47:47;;;;;;;4.65;1.55;;;17.90;52.70;;;;;;5052230;28;20186;-65
2022/02/20 10:50:17;;;;;;;3.20;1.55;;;17.80;52.70;;;;;;5052808;28;20171;-64
2022/02/20 10:52:42;;;;;;;3.80;1.40;;;17.90;52.80;;;;;;5052867;28;20214;-64
2022/02/20 10:55:12;;;;;;;3.25;1.40;;;17.80;52.70;;;;;;5034323;28;20529;-64
2022/02/20 10:57:41;;;;;;;3.08;1.60;;;17.80;52.90;;;;;;5052583;28;20234;-65
2022/02/20 11:00:20;;;;;;;3.22;1.50;;;17.80;53.60;;;;;;5052308;28;20277;-65
2022/02/20 11:02:46;;;;;;;4.03;1.58;;;17.80;53.00;;;;;;5051981;28;20559;-65
2022/02/20 11:05:12;;;;;;;4.13;1.58;;;17.80;53.00;;;;;;5052537;28;20636;-65
2022/02/20 11:07:38;;;;;;;2.78;1.48;;;17.80;52.90;;;;;;5052196;28;20176;-64
2022/02/20 11:10:05;;;;;;;4.75;1.80;;;17.80;52.90;;;;;;5051504;28;20653;-65
2022/02/20 11:12:32;;;;;;;4.78;2.00;;;17.80;52.90;;;;;;5052600;28;20218;-64
2022/02/20 11:14:57;;;;;;;5.07;2.00;;;17.80;52.90;;;;;;5017615;28;20690;-64
2022/02/20 11:17:23;;;;;;;3.00;1.58;;;17.80;52.90;;;;;;5017917;28;20258;-64
2022/02/20 11:19:49;;;;;;;5.35;2.40;;;17.80;52.90;;;;;;5052362;28;20182;-64
2022/02/20 11:22:14;;;;;;;3.03;1.70;;;17.80;53.00;;;;;;5051384;28;20688;-63
2022/02/20 11:24:40;;;;;;;4.00;1.70;;;17.70;53.00;;;;;;5018339;28;20178;-64
2022/02/20 11:27:05;;;;;;;4.45;1.77;;;17.80;53.20;;;;;;5034402;28;20183;-64
2022/02/20 11:29:37;;;;;;;5.30;2.13;;;17.80;53.20;;;;;;5051629;28;20228;-65
2022/02/20 11:32:05;;;;;;;4.13;1.95;;;17.80;53.20;;;;;;5045048;28;20230;-64
2022/02/20 11:34:30;;;;;;;5.03;2.00;;;17.80;53.10;;;;;;5072422;28;20197;-66
2022/02/20 11:36:57;;;;;;;6.20;2.55;;;17.90;53.10;;;;;;5053326;28;20170;-64
2022/02/20 11:39:22;;;;;;;4.40;1.85;;;17.80;53.00;;;;;;5072727;28;20170;-64
2022/02/20 11:42:11;;;;;;;3.67;2.10;;;17.80;53.00;;;;;;5072518;28;20649;-64
2022/02/20 11:45:06;;;;;;;4.90;2.05;;;17.80;53.10;;;;;;5070752;28;20733;-64
2022/02/20 11:47:40;;;;;;;4.80;1.73;;;17.80;53.10;;;;;;5072440;28;20174;-64
2022/02/20 11:50:17;;;;;;;5.00;2.13;;;17.70;53.20;;;;;;5071227;28;20179;-65
2022/02/20 11:52:53;;;;;;;6.13;2.42;;;17.80;53.40;;;;;;5072315;28;20206;-68
2022/02/20 11:55:24;;;;;;;5.78;2.28;;;17.70;53.40;;;;;;5072452;28;20185;-67
2022/02/20 11:57:50;;;;;;;7.20;2.10;;;17.70;53.40;;;;;;5071295;28;20359;-67
2022/02/20 12:00:20;;;;;;;5.90;2.35;;;17.80;53.50;;;;;;5071866;28;20257;-67
2022/02/20 12:03:00;;;;;;;6.25;1.83;;;17.90;53.40;;;;;;5072322;28;20182;-68
2022/02/20 12:05:26;;;;;;;6.00;2.47;;;17.90;53.40;;;;;;5071637;28;20253;-68
2022/02/20 12:07:51;;;;;;;3.22;1.90;;;18.00;53.30;;;;;;5072234;28;20260;-67
2022/02/20 12:10:18;;;;;;;4.93;2.33;;;18.10;53.20;;;;;;5072079;28;20201;-67
2022/02/20 12:12:46;;;;;;;5.45;2.00;;;18.20;53.10;;;;;;5071248;28;20568;-67
2022/02/20 12:15:40;;;;;;;7.18;3.08;;;18.40;52.90;;;;;;5054229;28;20179;-66
2022/02/20 12:18:12;;;;;;;9.55;2.00;;;18.50;52.80;;;;;;5071829;28;20175;-66
2022/02/20 12:20:50;;;;;;;6.13;2.45;;;18.60;52.70;;;;;;5075362;28;20200;-66
2022/02/20 12:23:35;;;;;;;6.57;2.40;;;18.60;52.40;;;;;;5075426;28;20178;-67
2022/02/20 12:26:07;;;;;;;7.35;2.78;;;18.70;52.30;;;;;;5074447;28;20193;-65
2022/02/20 12:28:40;;;;;;;5.57;2.10;;;18.70;52.30;;;;;;5075756;28;20197;-66
2022/02/20 12:31:15;;;;;;;5.47;1.90;;;18.80;52.30;;;;;;5072032;28;20191;-67
2022/02/20 12:33:45;;;;;;;3.90;2.20;;;18.90;52.20;;;;;;5054595;28;20182;-67
2022/02/20 12:36:11;;;;;;;7.05;2.00;;;18.90;52.10;;;;;;5055077;28;20251;-67
2022/02/20 12:38:48;;;;;;;3.85;1.67;;;18.90;52.00;;;;;;5055204;28;20618;-67
2022/02/20 12:41:14;;;;;;;5.80;1.80;;;19.00;51.90;;;;;;5037637;28;20206;-66
2022/02/20 12:43:39;;;;;;;5.43;2.30;;;19.00;51.90;;;;;;5055174;28;20581;-67
2022/02/20 12:46:05;;;;;;;5.75;2.22;;;19.00;51.80;;;;;;5037255;28;20626;-65